Hauptseite
METAR-TAF:

METAR-TAF

Flughäfen :

Kuwait-Stadt, Kuwait

Flughafen Kuwait

Breite: 29-13N, Länge: 047-59E, Höhe: 55 m

Beobachtung

Neuester Wetterbericht von vor 20 Minuten, um 08:00 UTC
Wind 5 kt aus Ost/Südost
Temperatur 35°C
Luftfeuchtigkeit 17%
Luftdruck 1010 hPa
Sichtweite: 7000 m
Himmel klar

METAR: OKBK 280800Z 11005KT 7000 SKC 35/06 Q1010 NOSIG

Zeit: 11:20 (08:20 UTC)

Prognose

Neuester Wetterbericht von vor 3 Stunden und 35 Minuten, um 04:45 UTC
Gültige Prognose vom 28 um 06 UTC bis 29 um 12 UTC
Wind 8 kt aus Ost
Sichtweite: 6000 m

TAF: OKBK 280445Z 2806/2912 10008KT 6000 NSC

Wetterbeobachtungen und Prognosen von mehr als 4000 Flughäfen (METAR und TAF Bericht).

Die verfügbaren Stationen werden durch gelbe und rote Markierungen auf der Karte dargestellt.

Führen Sie die Maus auf sie, um den Namen der Station zu sehen.

Darauf klicken, um die Beobachtung von Wetterbeobachtungen und Prognosen zu sehen.

Um die Karte zu ändern : klicken Sie auf den grünen Tasten mit einem schwarzen Kreuz Zum Vergrößern, auf den grünen Button mit einem Gedankenstrich zu verkleinern, oder auf die grünen Pfeile für benachbarte Karten.


METAR-TAF: